Gakona, AK

3:07 AM AKDT on July 04, 2015 (GMT -0800)
Copper Bluff Subdivision | | Change Station
CLOSE
Current Station
Personal Weather Station
Location: Gakona, AK
Elevation: 1625 ft
Nearby Weather Stations

Elev 1625 ft 62.29 °N, 145.34 °W | Updated 10 minutes ago

Partly Cloudy
Partly Cloudy
53.3 °F
Feels Like 53.3 °F
N
0.0
Wind Variable Wind from SE
Gusts 1.0 mph

Today
High -- | Low -- °F
--% Chance of Precip.
Yesterday
High -- | Low -- °F
Precip. -- in
3:58 AM 11:32 PM
Waning Gibbous, 93% visible
Pressure 30.18 in
Visibility -9999.0 miles
Clouds Few 7000 ft
Dew Point 46 °F
Humidity 75%
Rainfall 0.00 in
Snow Depth Not available.
UV 0.0 out of 12
Pollen Not available.
Air Quality Not available.
Flu Activity Not available.
METAR PAGK 041053Z AUTO 17004KT FEW070 11/07 A3018 RMK AO2 SLP219 T01110072 TSNO $

More Conditions Fewer Conditions

Pressure 30.18 in
Visibility -9999.0 miles
Clouds Few 7000 ft
Dew Point 46 °F
Humidity 75%
Rainfall 0.00 in
Snow Depth Not available.
UV 0.0 out of 12
Pollen Not available.
Air Quality Not available.
Flu Activity Not available.
METAR PAGK 041053Z AUTO 17004KT FEW070 11/07 A3018 RMK AO2 SLP219 T01110072 TSNO $

More Conditions Fewer Conditions

10-Day Weather Forecast

×

Almanac

Astronomy

Jul. 04, 2015 Rise Set
Actual Time
Civil Twilight
Nautical Twilight
Astronomical Twilight
Moon
Length of Visible Light
Length of Day
Tomorrow will be .
, % of the Moon is Illuminated

Today's Extremes

State Highs State Lows

Community

WunderPhotos

Upload Photos

1,834,939 photos uploaded!

WunderBlogs® & News

Nearby

Air Quality

  Air Quality AQ Index Pollutant
Not available.

Snow Depth

Station Depth Elevation

Earthquake Activity

City Distance Mag. Time & Date
Minimum magnitude displayed is 2.5.

Coastal Water Temperatures

Place Temperature

Stations

Nearby Weather Stations

Station Location Temp. Windchill Dew Point Humidity Wind Precip. Elev Updated Type